sensor_id;sensor_type;location;lat;lon;timestamp;P1;durP1;ratioP1;P2;durP2;ratioP2
19036;SDS011;9651;49.138;8.900;2024-02-15T00:02:45;8.40;;;5.77;;
19036;SDS011;9651;49.138;8.900;2024-02-15T00:06:47;8.20;;;5.03;;
19036;SDS011;9651;49.138;8.900;2024-02-15T00:10:49;7.63;;;5.77;;
19036;SDS011;9651;49.138;8.900;2024-02-15T00:14:52;6.57;;;5.17;;
19036;SDS011;9651;49.138;8.900;2024-02-15T00:18:54;8.27;;;5.20;;
19036;SDS011;9651;49.138;8.900;2024-02-15T00:22:56;13.53;;;5.90;;
19036;SDS011;9651;49.138;8.900;2024-02-15T00:26:58;10.13;;;7.07;;
19036;SDS011;9651;49.138;8.900;2024-02-15T00:31:02;9.83;;;7.33;;
19036;SDS011;9651;49.138;8.900;2024-02-15T00:35:04;10.27;;;6.97;;
19036;SDS011;9651;49.138;8.900;2024-02-15T00:39:07;9.77;;;6.63;;
19036;SDS011;9651;49.138;8.900;2024-02-15T00:43:11;8.77;;;5.70;;
19036;SDS011;9651;49.138;8.900;2024-02-15T00:47:15;4.60;;;4.03;;
19036;SDS011;9651;49.138;8.900;2024-02-15T00:51:18;6.10;;;3.57;;
19036;SDS011;9651;49.138;8.900;2024-02-15T00:55:21;5.07;;;3.13;;
19036;SDS011;9651;49.138;8.900;2024-02-15T00:59:23;3.93;;;2.73;;
19036;SDS011;9651;49.138;8.900;2024-02-15T01:03:26;6.07;;;2.70;;
19036;SDS011;9651;49.138;8.900;2024-02-15T01:07:28;4.77;;;2.67;;
19036;SDS011;9651;49.138;8.900;2024-02-15T01:11:30;4.17;;;2.93;;
19036;SDS011;9651;49.138;8.900;2024-02-15T01:15:33;3.03;;;2.37;;
19036;SDS011;9651;49.138;8.900;2024-02-15T01:19:39;2.90;;;2.57;;
19036;SDS011;9651;49.138;8.900;2024-02-15T01:23:41;5.27;;;2.37;;
19036;SDS011;9651;49.138;8.900;2024-02-15T01:27:44;3.23;;;2.43;;
19036;SDS011;9651;49.138;8.900;2024-02-15T01:31:46;3.13;;;2.33;;
19036;SDS011;9651;49.138;8.900;2024-02-15T01:35:49;3.37;;;2.53;;
19036;SDS011;9651;49.138;8.900;2024-02-15T01:39:51;7.60;;;3.33;;
19036;SDS011;9651;49.138;8.900;2024-02-15T01:43:53;3.80;;;2.93;;
19036;SDS011;9651;49.138;8.900;2024-02-15T01:47:57;4.00;;;3.00;;
19036;SDS011;9651;49.138;8.900;2024-02-15T01:52:01;4.23;;;2.90;;
19036;SDS011;9651;49.138;8.900;2024-02-15T01:56:08;3.43;;;2.90;;
19036;SDS011;9651;49.138;8.900;2024-02-15T02:00:13;3.40;;;2.83;;
19036;SDS011;9651;49.138;8.900;2024-02-15T02:04:18;6.77;;;2.70;;
19036;SDS011;9651;49.138;8.900;2024-02-15T02:08:22;3.67;;;2.53;;
19036;SDS011;9651;49.138;8.900;2024-02-15T02:12:24;3.27;;;2.53;;
19036;SDS011;9651;49.138;8.900;2024-02-15T02:16:28;3.47;;;2.47;;
19036;SDS011;9651;49.138;8.900;2024-02-15T02:20:31;3.83;;;2.23;;
19036;SDS011;9651;49.138;8.900;2024-02-15T02:24:39;4.00;;;2.20;;
19036;SDS011;9651;49.138;8.900;2024-02-15T02:28:47;2.33;;;2.00;;
19036;SDS011;9651;49.138;8.900;2024-02-15T02:32:49;3.57;;;2.30;;
19036;SDS011;9651;49.138;8.900;2024-02-15T02:36:51;3.47;;;2.80;;
19036;SDS011;9651;49.138;8.900;2024-02-15T02:40:53;3.80;;;2.60;;
19036;SDS011;9651;49.138;8.900;2024-02-15T02:44:56;3.77;;;2.53;;
19036;SDS011;9651;49.138;8.900;2024-02-15T02:48:58;6.67;;;1.47;;
19036;SDS011;9651;49.138;8.900;2024-02-15T02:53:00;4.27;;;1.70;;
19036;SDS011;9651;49.138;8.900;2024-02-15T02:57:02;3.20;;;2.20;;
19036;SDS011;9651;49.138;8.900;2024-02-15T03:01:07;3.03;;;1.80;;
19036;SDS011;9651;49.138;8.900;2024-02-15T03:05:09;2.73;;;2.07;;
19036;SDS011;9651;49.138;8.900;2024-02-15T03:09:12;3.50;;;2.00;;
19036;SDS011;9651;49.138;8.900;2024-02-15T03:13:14;4.77;;;2.67;;
19036;SDS011;9651;49.138;8.900;2024-02-15T03:17:20;5.13;;;2.80;;
19036;SDS011;9651;49.138;8.900;2024-02-15T03:21:22;3.70;;;2.50;;
19036;SDS011;9651;49.138;8.900;2024-02-15T03:25:25;4.83;;;2.73;;
19036;SDS011;9651;49.138;8.900;2024-02-15T03:29:29;4.37;;;3.10;;
19036;SDS011;9651;49.138;8.900;2024-02-15T03:33:32;6.03;;;3.13;;
19036;SDS011;9651;49.138;8.900;2024-02-15T03:37:34;7.17;;;3.20;;
19036;SDS011;9651;49.138;8.900;2024-02-15T03:41:38;5.27;;;2.00;;
19036;SDS011;9651;49.138;8.900;2024-02-15T03:45:41;6.40;;;2.87;;
19036;SDS011;9651;49.138;8.900;2024-02-15T03:49:46;2.73;;;2.00;;
19036;SDS011;9651;49.138;8.900;2024-02-15T03:53:48;3.33;;;1.77;;
19036;SDS011;9651;49.138;8.900;2024-02-15T03:57:50;5.90;;;1.90;;
19036;SDS011;9651;49.138;8.900;2024-02-15T04:01:52;3.27;;;1.67;;
19036;SDS011;9651;49.138;8.900;2024-02-15T04:05:56;1.50;;;1.27;;
19036;SDS011;9651;49.138;8.900;2024-02-15T04:09:59;1.93;;;1.73;;
19036;SDS011;9651;49.138;8.900;2024-02-15T04:14:01;3.50;;;1.67;;
19036;SDS011;9651;49.138;8.900;2024-02-15T04:18:03;1.93;;;1.77;;
19036;SDS011;9651;49.138;8.900;2024-02-15T04:22:07;5.00;;;2.40;;
19036;SDS011;9651;49.138;8.900;2024-02-15T04:26:09;4.87;;;3.20;;
19036;SDS011;9651;49.138;8.900;2024-02-15T04:30:14;5.80;;;3.90;;
19036;SDS011;9651;49.138;8.900;2024-02-15T04:34:16;7.80;;;3.93;;
19036;SDS011;9651;49.138;8.900;2024-02-15T04:38:19;8.53;;;4.80;;
19036;SDS011;9651;49.138;8.900;2024-02-15T04:42:21;7.77;;;3.60;;
19036;SDS011;9651;49.138;8.900;2024-02-15T04:46:26;6.30;;;3.23;;
19036;SDS011;9651;49.138;8.900;2024-02-15T04:50:29;5.17;;;2.80;;
19036;SDS011;9651;49.138;8.900;2024-02-15T04:54:32;6.27;;;2.90;;
19036;SDS011;9651;49.138;8.900;2024-02-15T04:58:34;6.37;;;2.97;;
19036;SDS011;9651;49.138;8.900;2024-02-15T05:02:36;5.73;;;2.63;;
19036;SDS011;9651;49.138;8.900;2024-02-15T05:06:40;4.87;;;2.33;;
19036;SDS011;9651;49.138;8.900;2024-02-15T05:10:44;6.87;;;2.77;;
19036;SDS011;9651;49.138;8.900;2024-02-15T05:14:46;4.97;;;2.97;;
19036;SDS011;9651;49.138;8.900;2024-02-15T05:18:48;4.30;;;2.97;;
19036;SDS011;9651;49.138;8.900;2024-02-15T05:22:50;4.37;;;2.63;;
19036;SDS011;9651;49.138;8.900;2024-02-15T05:26:53;3.57;;;2.70;;
19036;SDS011;9651;49.138;8.900;2024-02-15T05:31:08;6.07;;;1.97;;
19036;SDS011;9651;49.138;8.900;2024-02-15T05:35:11;3.03;;;2.00;;
19036;SDS011;9651;49.138;8.900;2024-02-15T05:39:15;4.87;;;2.30;;
19036;SDS011;9651;49.138;8.900;2024-02-15T05:43:20;3.37;;;2.67;;
19036;SDS011;9651;49.138;8.900;2024-02-15T05:47:22;7.27;;;3.60;;
19036;SDS011;9651;49.138;8.900;2024-02-15T05:51:24;4.33;;;3.03;;
19036;SDS011;9651;49.138;8.900;2024-02-15T05:55:26;5.00;;;3.83;;
19036;SDS011;9651;49.138;8.900;2024-02-15T05:59:30;6.00;;;4.10;;
19036;SDS011;9651;49.138;8.900;2024-02-15T06:03:33;4.23;;;3.03;;
19036;SDS011;9651;49.138;8.900;2024-02-15T06:07:38;4.80;;;3.00;;
19036;SDS011;9651;49.138;8.900;2024-02-15T06:11:40;3.80;;;3.07;;
19036;SDS011;9651;49.138;8.900;2024-02-15T06:15:45;5.70;;;3.13;;
19036;SDS011;9651;49.138;8.900;2024-02-15T06:19:52;4.67;;;3.40;;
19036;SDS011;9651;49.138;8.900;2024-02-15T06:23:54;5.37;;;3.97;;
19036;SDS011;9651;49.138;8.900;2024-02-15T06:27:56;7.03;;;4.40;;
19036;SDS011;9651;49.138;8.900;2024-02-15T06:32:04;6.67;;;5.23;;
19036;SDS011;9651;49.138;8.900;2024-02-15T06:36:23;6.90;;;4.83;;
19036;SDS011;9651;49.138;8.900;2024-02-15T06:40:43;5.87;;;4.37;;
19036;SDS011;9651;49.138;8.900;2024-02-15T06:44:45;13.43;;;6.67;;
19036;SDS011;9651;49.138;8.900;2024-02-15T06:48:48;13.50;;;8.73;;
19036;SDS011;9651;49.138;8.900;2024-02-15T06:52:50;13.90;;;8.70;;
19036;SDS011;9651;49.138;8.900;2024-02-15T06:56:53;15.50;;;6.73;;
19036;SDS011;9651;49.138;8.900;2024-02-15T07:00:55;9.30;;;6.63;;
19036;SDS011;9651;49.138;8.900;2024-02-15T07:04:58;9.80;;;5.87;;
19036;SDS011;9651;49.138;8.900;2024-02-15T07:09:00;13.10;;;5.97;;
19036;SDS011;9651;49.138;8.900;2024-02-15T07:13:03;7.23;;;3.83;;
19036;SDS011;9651;49.138;8.900;2024-02-15T07:17:06;8.90;;;3.53;;
19036;SDS011;9651;49.138;8.900;2024-02-15T07:21:09;8.07;;;4.57;;
19036;SDS011;9651;49.138;8.900;2024-02-15T07:25:13;6.13;;;3.83;;
19036;SDS011;9651;49.138;8.900;2024-02-15T07:29:15;6.40;;;3.57;;
19036;SDS011;9651;49.138;8.900;2024-02-15T07:33:17;7.40;;;3.80;;
19036;SDS011;9651;49.138;8.900;2024-02-15T07:37:22;8.30;;;4.60;;
19036;SDS011;9651;49.138;8.900;2024-02-15T07:41:26;11.10;;;5.77;;
19036;SDS011;9651;49.138;8.900;2024-02-15T07:45:28;7.00;;;4.77;;
19036;SDS011;9651;49.138;8.900;2024-02-15T07:49:30;7.03;;;4.73;;
19036;SDS011;9651;49.138;8.900;2024-02-15T07:53:34;8.57;;;4.83;;
19036;SDS011;9651;49.138;8.900;2024-02-15T07:57:36;10.17;;;5.80;;
19036;SDS011;9651;49.138;8.900;2024-02-15T08:01:40;9.57;;;5.40;;
19036;SDS011;9651;49.138;8.900;2024-02-15T08:05:41;7.97;;;5.13;;
19036;SDS011;9651;49.138;8.900;2024-02-15T08:09:45;9.33;;;5.47;;
19036;SDS011;9651;49.138;8.900;2024-02-15T08:13:47;8.67;;;5.00;;
19036;SDS011;9651;49.138;8.900;2024-02-15T08:17:50;12.17;;;5.63;;
19036;SDS011;9651;49.138;8.900;2024-02-15T08:21:52;8.43;;;4.40;;
19036;SDS011;9651;49.138;8.900;2024-02-15T08:25:55;4.40;;;3.10;;
19036;SDS011;9651;49.138;8.900;2024-02-15T08:29:57;7.93;;;3.53;;
19036;SDS011;9651;49.138;8.900;2024-02-15T08:33:59;4.30;;;2.67;;
19036;SDS011;9651;49.138;8.900;2024-02-15T08:38:02;4.80;;;2.60;;
19036;SDS011;9651;49.138;8.900;2024-02-15T08:42:06;4.07;;;2.00;;
19036;SDS011;9651;49.138;8.900;2024-02-15T08:46:08;6.23;;;2.80;;
19036;SDS011;9651;49.138;8.900;2024-02-15T08:50:10;4.80;;;2.47;;
19036;SDS011;9651;49.138;8.900;2024-02-15T08:54:13;5.70;;;2.33;;
19036;SDS011;9651;49.138;8.900;2024-02-15T08:58:16;5.17;;;2.57;;
19036;SDS011;9651;49.138;8.900;2024-02-15T09:02:18;5.27;;;2.50;;
19036;SDS011;9651;49.138;8.900;2024-02-15T09:06:20;5.33;;;2.97;;
19036;SDS011;9651;49.138;8.900;2024-02-15T09:10:23;4.53;;;1.90;;
19036;SDS011;9651;49.138;8.900;2024-02-15T09:14:27;6.73;;;2.90;;
19036;SDS011;9651;49.138;8.900;2024-02-15T09:18:29;8.30;;;3.80;;
19036;SDS011;9651;49.138;8.900;2024-02-15T09:22:33;6.43;;;3.35;;
19036;SDS011;9651;49.138;8.900;2024-02-15T09:26:37;5.00;;;3.22;;
19036;SDS011;9651;49.138;8.900;2024-02-15T09:30:40;10.18;;;5.05;;
19036;SDS011;9651;49.138;8.900;2024-02-15T09:34:42;9.60;;;4.18;;
19036;SDS011;9651;49.138;8.900;2024-02-15T09:38:44;6.22;;;3.25;;
19036;SDS011;9651;49.138;8.900;2024-02-15T09:42:47;5.53;;;2.88;;
19036;SDS011;9651;49.138;8.900;2024-02-15T09:46:50;4.78;;;1.90;;
19036;SDS011;9651;49.138;8.900;2024-02-15T09:51:01;3.30;;;0.85;;
19036;SDS011;9651;49.138;8.900;2024-02-15T09:55:03;1.58;;;0.82;;
19036;SDS011;9651;49.138;8.900;2024-02-15T09:59:10;2.70;;;1.00;;
19036;SDS011;9651;49.138;8.900;2024-02-15T10:03:14;1.17;;;0.82;;
19036;SDS011;9651;49.138;8.900;2024-02-15T10:07:20;5.18;;;0.80;;
19036;SDS011;9651;49.138;8.900;2024-02-15T10:11:21;4.47;;;1.23;;
19036;SDS011;9651;49.138;8.900;2024-02-15T10:15:27;0.95;;;0.70;;
19036;SDS011;9651;49.138;8.900;2024-02-15T10:19:32;3.63;;;1.23;;
19036;SDS011;9651;49.138;8.900;2024-02-15T10:23:35;2.13;;;0.85;;
19036;SDS011;9651;49.138;8.900;2024-02-15T10:27:37;2.60;;;1.33;;
19036;SDS011;9651;49.138;8.900;2024-02-15T10:31:39;3.58;;;0.88;;
19036;SDS011;9651;49.138;8.900;2024-02-15T10:35:54;4.63;;;0.95;;
19036;SDS011;9651;49.138;8.900;2024-02-15T10:40:07;3.92;;;1.15;;
19036;SDS011;9651;49.138;8.900;2024-02-15T10:44:09;4.60;;;0.80;;
19036;SDS011;9651;49.138;8.900;2024-02-15T10:48:12;3.13;;;1.13;;
19036;SDS011;9651;49.138;8.900;2024-02-15T10:52:16;3.90;;;0.98;;
19036;SDS011;9651;49.138;8.900;2024-02-15T10:56:19;3.45;;;0.90;;
19036;SDS011;9651;49.138;8.900;2024-02-15T11:00:29;3.00;;;0.60;;
19036;SDS011;9651;49.138;8.900;2024-02-15T11:04:35;2.45;;;0.80;;
19036;SDS011;9651;49.138;8.900;2024-02-15T11:08:38;1.75;;;0.80;;
19036;SDS011;9651;49.138;8.900;2024-02-15T11:12:41;1.75;;;0.80;;
19036;SDS011;9651;49.138;8.900;2024-02-15T11:16:43;4.05;;;0.80;;
19036;SDS011;9651;49.138;8.900;2024-02-15T11:20:45;4.80;;;1.10;;
19036;SDS011;9651;49.138;8.900;2024-02-15T11:24:51;2.17;;;1.10;;
19036;SDS011;9651;49.138;8.900;2024-02-15T11:28:53;2.30;;;0.90;;
19036;SDS011;9651;49.138;8.900;2024-02-15T11:32:55;1.95;;;0.93;;
19036;SDS011;9651;49.138;8.900;2024-02-15T11:36:57;2.38;;;0.77;;
19036;SDS011;9651;49.138;8.900;2024-02-15T11:41:01;4.80;;;1.27;;
19036;SDS011;9651;49.138;8.900;2024-02-15T11:45:06;3.13;;;1.30;;
19036;SDS011;9651;49.138;8.900;2024-02-15T11:49:14;2.30;;;1.15;;
19036;SDS011;9651;49.138;8.900;2024-02-15T11:53:17;2.22;;;0.80;;
19036;SDS011;9651;49.138;8.900;2024-02-15T11:57:21;1.33;;;0.70;;
19036;SDS011;9651;49.138;8.900;2024-02-15T12:01:36;2.08;;;0.60;;
19036;SDS011;9651;49.138;8.900;2024-02-15T12:05:55;4.00;;;0.90;;
19036;SDS011;9651;49.138;8.900;2024-02-15T12:10:16;2.10;;;0.93;;
19036;SDS011;9651;49.138;8.900;2024-02-15T12:14:36;1.92;;;0.80;;
19036;SDS011;9651;49.138;8.900;2024-02-15T12:18:56;2.90;;;0.95;;
19036;SDS011;9651;49.138;8.900;2024-02-15T12:22:59;2.95;;;0.93;;
19036;SDS011;9651;49.138;8.900;2024-02-15T12:27:01;2.03;;;1.10;;
19036;SDS011;9651;49.138;8.900;2024-02-15T12:31:06;2.40;;;1.10;;
19036;SDS011;9651;49.138;8.900;2024-02-15T12:35:11;2.05;;;1.08;;
19036;SDS011;9651;49.138;8.900;2024-02-15T12:39:23;2.70;;;1.00;;
19036;SDS011;9651;49.138;8.900;2024-02-15T12:43:28;2.28;;;1.00;;
19036;SDS011;9651;49.138;8.900;2024-02-15T12:47:31;6.15;;;1.23;;
19036;SDS011;9651;49.138;8.900;2024-02-15T12:51:33;2.88;;;0.98;;
19036;SDS011;9651;49.138;8.900;2024-02-15T12:55:35;1.33;;;0.70;;
19036;SDS011;9651;49.138;8.900;2024-02-15T12:59:37;2.40;;;0.90;;
19036;SDS011;9651;49.138;8.900;2024-02-15T13:03:41;3.67;;;0.95;;
19036;SDS011;9651;49.138;8.900;2024-02-15T13:07:43;1.85;;;1.05;;
19036;SDS011;9651;49.138;8.900;2024-02-15T13:11:45;4.53;;;1.13;;
19036;SDS011;9651;49.138;8.900;2024-02-15T13:15:47;4.07;;;1.40;;
19036;SDS011;9651;49.138;8.900;2024-02-15T13:19:50;3.25;;;0.98;;
19036;SDS011;9651;49.138;8.900;2024-02-15T13:23:52;3.25;;;1.10;;
19036;SDS011;9651;49.138;8.900;2024-02-15T13:27:55;1.63;;;0.90;;
19036;SDS011;9651;49.138;8.900;2024-02-15T13:31:57;3.22;;;1.52;;
19036;SDS011;9651;49.138;8.900;2024-02-15T13:36:01;2.22;;;1.10;;
19036;SDS011;9651;49.138;8.900;2024-02-15T13:40:04;4.63;;;1.20;;
19036;SDS011;9651;49.138;8.900;2024-02-15T13:44:15;2.67;;;0.85;;
19036;SDS011;9651;49.138;8.900;2024-02-15T13:48:17;2.15;;;1.00;;
19036;SDS011;9651;49.138;8.900;2024-02-15T13:52:20;2.88;;;1.00;;
19036;SDS011;9651;49.138;8.900;2024-02-15T13:56:22;3.88;;;1.25;;
19036;SDS011;9651;49.138;8.900;2024-02-15T14:00:24;2.35;;;1.00;;
19036;SDS011;9651;49.138;8.900;2024-02-15T14:04:30;3.72;;;1.20;;
19036;SDS011;9651;49.138;8.900;2024-02-15T14:08:35;3.92;;;1.20;;
19036;SDS011;9651;49.138;8.900;2024-02-15T14:12:37;8.13;;;1.70;;
19036;SDS011;9651;49.138;8.900;2024-02-15T14:16:39;2.15;;;1.13;;
19036;SDS011;9651;49.138;8.900;2024-02-15T14:20:41;2.28;;;1.40;;
19036;SDS011;9651;49.138;8.900;2024-02-15T14:24:45;3.95;;;1.45;;
19036;SDS011;9651;49.138;8.900;2024-02-15T14:28:48;3.92;;;1.20;;
19036;SDS011;9651;49.138;8.900;2024-02-15T14:32:50;3.60;;;1.20;;
19036;SDS011;9651;49.138;8.900;2024-02-15T14:37:00;4.60;;;1.23;;
19036;SDS011;9651;49.138;8.900;2024-02-15T14:41:07;2.10;;;1.00;;
19036;SDS011;9651;49.138;8.900;2024-02-15T14:45:11;3.65;;;1.40;;
19036;SDS011;9651;49.138;8.900;2024-02-15T14:49:13;4.85;;;1.90;;
19036;SDS011;9651;49.138;8.900;2024-02-15T14:53:17;2.35;;;1.10;;
19036;SDS011;9651;49.138;8.900;2024-02-15T14:57:20;3.03;;;1.20;;
19036;SDS011;9651;49.138;8.900;2024-02-15T15:01:22;2.33;;;1.30;;
19036;SDS011;9651;49.138;8.900;2024-02-15T15:05:24;3.50;;;1.40;;
19036;SDS011;9651;49.138;8.900;2024-02-15T15:09:43;2.83;;;1.30;;
19036;SDS011;9651;49.138;8.900;2024-02-15T15:14:13;2.38;;;1.25;;
19036;SDS011;9651;49.138;8.900;2024-02-15T15:18:14;4.53;;;1.85;;
19036;SDS011;9651;49.138;8.900;2024-02-15T15:22:17;3.35;;;1.58;;
19036;SDS011;9651;49.138;8.900;2024-02-15T15:26:21;1.83;;;1.30;;
19036;SDS011;9651;49.138;8.900;2024-02-15T15:30:25;5.38;;;2.13;;
19036;SDS011;9651;49.138;8.900;2024-02-15T15:34:27;7.63;;;2.33;;
19036;SDS011;9651;49.138;8.900;2024-02-15T15:38:30;3.47;;;1.67;;
19036;SDS011;9651;49.138;8.900;2024-02-15T15:42:32;2.28;;;1.30;;
19036;SDS011;9651;49.138;8.900;2024-02-15T15:46:36;5.15;;;1.90;;
19036;SDS011;9651;49.138;8.900;2024-02-15T15:50:39;3.10;;;1.45;;
19036;SDS011;9651;49.138;8.900;2024-02-15T15:54:43;4.85;;;1.90;;
19036;SDS011;9651;49.138;8.900;2024-02-15T15:58:45;4.65;;;2.25;;
19036;SDS011;9651;49.138;8.900;2024-02-15T16:02:49;4.68;;;2.00;;
19036;SDS011;9651;49.138;8.900;2024-02-15T16:06:51;7.93;;;3.50;;
19036;SDS011;9651;49.138;8.900;2024-02-15T16:10:54;6.18;;;3.33;;
19036;SDS011;9651;49.138;8.900;2024-02-15T16:14:57;4.35;;;2.70;;
19036;SDS011;9651;49.138;8.900;2024-02-15T16:19:00;4.57;;;2.63;;
19036;SDS011;9651;49.138;8.900;2024-02-15T16:23:04;6.15;;;2.70;;
19036;SDS011;9651;49.138;8.900;2024-02-15T16:27:06;3.30;;;1.90;;
19036;SDS011;9651;49.138;8.900;2024-02-15T16:31:08;2.50;;;1.33;;
19036;SDS011;9651;49.138;8.900;2024-02-15T16:35:11;3.35;;;1.65;;
19036;SDS011;9651;49.138;8.900;2024-02-15T16:39:15;6.20;;;3.55;;
19036;SDS011;9651;49.138;8.900;2024-02-15T16:43:17;7.75;;;3.58;;
19036;SDS011;9651;49.138;8.900;2024-02-15T16:47:20;5.82;;;3.60;;
19036;SDS011;9651;49.138;8.900;2024-02-15T16:51:23;6.50;;;3.57;;
19036;SDS011;9651;49.138;8.900;2024-02-15T16:55:26;6.47;;;4.03;;
19036;SDS011;9651;49.138;8.900;2024-02-15T16:59:31;6.18;;;4.30;;
19036;SDS011;9651;49.138;8.900;2024-02-15T17:03:34;8.48;;;4.88;;
19036;SDS011;9651;49.138;8.900;2024-02-15T17:07:37;6.32;;;4.35;;
19036;SDS011;9651;49.138;8.900;2024-02-15T17:11:40;9.52;;;4.55;;
19036;SDS011;9651;49.138;8.900;2024-02-15T17:15:42;11.27;;;6.88;;
19036;SDS011;9651;49.138;8.900;2024-02-15T17:19:44;13.60;;;6.85;;
19036;SDS011;9651;49.138;8.900;2024-02-15T17:23:48;14.57;;;7.97;;
19036;SDS011;9651;49.138;8.900;2024-02-15T17:27:50;13.10;;;9.27;;
19036;SDS011;9651;49.138;8.900;2024-02-15T17:31:54;14.63;;;9.80;;
19036;SDS011;9651;49.138;8.900;2024-02-15T17:35:56;17.03;;;9.07;;
19036;SDS011;9651;49.138;8.900;2024-02-15T17:40:00;15.07;;;8.60;;
19036;SDS011;9651;49.138;8.900;2024-02-15T17:44:03;12.65;;;9.13;;
19036;SDS011;9651;49.138;8.900;2024-02-15T17:48:07;9.65;;;6.93;;
19036;SDS011;9651;49.138;8.900;2024-02-15T17:52:10;10.13;;;6.33;;
19036;SDS011;9651;49.138;8.900;2024-02-15T17:56:13;11.97;;;6.17;;
19036;SDS011;9651;49.138;8.900;2024-02-15T18:00:15;18.05;;;7.63;;
19036;SDS011;9651;49.138;8.900;2024-02-15T18:04:19;12.73;;;6.70;;
19036;SDS011;9651;49.138;8.900;2024-02-15T18:08:21;10.43;;;5.23;;
19036;SDS011;9651;49.138;8.900;2024-02-15T18:12:26;8.87;;;4.97;;
19036;SDS011;9651;49.138;8.900;2024-02-15T18:16:28;9.23;;;4.20;;
19036;SDS011;9651;49.138;8.900;2024-02-15T18:20:30;10.27;;;4.30;;
19036;SDS011;9651;49.138;8.900;2024-02-15T18:24:32;11.70;;;5.37;;
19036;SDS011;9651;49.138;8.900;2024-02-15T18:28:35;9.43;;;4.97;;
19036;SDS011;9651;49.138;8.900;2024-02-15T18:32:37;7.77;;;5.07;;
19036;SDS011;9651;49.138;8.900;2024-02-15T18:36:40;11.10;;;5.20;;
19036;SDS011;9651;49.138;8.900;2024-02-15T18:40:42;5.97;;;4.20;;
19036;SDS011;9651;49.138;8.900;2024-02-15T18:44:45;6.90;;;4.37;;
19036;SDS011;9651;49.138;8.900;2024-02-15T18:48:47;7.13;;;4.37;;
19036;SDS011;9651;49.138;8.900;2024-02-15T18:52:50;11.60;;;6.93;;
19036;SDS011;9651;49.138;8.900;2024-02-15T18:56:53;9.60;;;6.27;;
19036;SDS011;9651;49.138;8.900;2024-02-15T19:00:57;9.60;;;6.10;;
19036;SDS011;9651;49.138;8.900;2024-02-15T19:04:59;8.50;;;5.00;;
19036;SDS011;9651;49.138;8.900;2024-02-15T19:09:11;11.13;;;6.33;;
19036;SDS011;9651;49.138;8.900;2024-02-15T19:13:15;11.17;;;6.47;;
19036;SDS011;9651;49.138;8.900;2024-02-15T19:17:20;9.13;;;5.93;;
19036;SDS011;9651;49.138;8.900;2024-02-15T19:21:21;10.07;;;5.47;;
19036;SDS011;9651;49.138;8.900;2024-02-15T19:25:23;7.27;;;4.63;;
19036;SDS011;9651;49.138;8.900;2024-02-15T19:29:25;6.13;;;4.50;;
19036;SDS011;9651;49.138;8.900;2024-02-15T19:33:29;8.87;;;4.10;;
19036;SDS011;9651;49.138;8.900;2024-02-15T19:37:31;8.13;;;3.80;;
19036;SDS011;9651;49.138;8.900;2024-02-15T19:41:33;5.30;;;4.17;;
19036;SDS011;9651;49.138;8.900;2024-02-15T19:45:35;10.03;;;4.67;;
19036;SDS011;9651;49.138;8.900;2024-02-15T19:49:43;5.57;;;2.90;;
19036;SDS011;9651;49.138;8.900;2024-02-15T19:53:46;9.53;;;3.20;;
19036;SDS011;9651;49.138;8.900;2024-02-15T19:57:49;3.57;;;2.40;;
19036;SDS011;9651;49.138;8.900;2024-02-15T20:01:52;6.67;;;3.00;;
19036;SDS011;9651;49.138;8.900;2024-02-15T20:05:56;5.27;;;3.07;;
19036;SDS011;9651;49.138;8.900;2024-02-15T20:09:58;9.37;;;4.53;;
19036;SDS011;9651;49.138;8.900;2024-02-15T20:14:00;8.40;;;3.97;;
19036;SDS011;9651;49.138;8.900;2024-02-15T20:18:04;5.87;;;3.63;;
19036;SDS011;9651;49.138;8.900;2024-02-15T20:22:08;6.97;;;2.70;;
19036;SDS011;9651;49.138;8.900;2024-02-15T20:26:10;5.87;;;3.70;;
19036;SDS011;9651;49.138;8.900;2024-02-15T20:30:13;3.70;;;2.90;;
19036;SDS011;9651;49.138;8.900;2024-02-15T20:34:17;4.77;;;3.20;;
19036;SDS011;9651;49.138;8.900;2024-02-15T20:38:22;6.00;;;4.17;;
19036;SDS011;9651;49.138;8.900;2024-02-15T20:42:28;8.27;;;4.27;;
19036;SDS011;9651;49.138;8.900;2024-02-15T20:46:30;9.47;;;4.67;;
19036;SDS011;9651;49.138;8.900;2024-02-15T20:50:32;6.47;;;4.30;;
19036;SDS011;9651;49.138;8.900;2024-02-15T20:54:36;12.10;;;5.10;;
19036;SDS011;9651;49.138;8.900;2024-02-15T20:58:38;15.53;;;6.87;;
19036;SDS011;9651;49.138;8.900;2024-02-15T21:02:40;8.83;;;5.17;;
19036;SDS011;9651;49.138;8.900;2024-02-15T21:06:42;13.03;;;5.27;;
19036;SDS011;9651;49.138;8.900;2024-02-15T21:10:46;7.63;;;3.33;;
19036;SDS011;9651;49.138;8.900;2024-02-15T21:14:48;8.30;;;4.40;;
19036;SDS011;9651;49.138;8.900;2024-02-15T21:18:50;15.73;;;6.77;;
19036;SDS011;9651;49.138;8.900;2024-02-15T21:22:53;16.80;;;6.90;;
19036;SDS011;9651;49.138;8.900;2024-02-15T21:26:58;17.67;;;5.67;;
19036;SDS011;9651;49.138;8.900;2024-02-15T21:31:00;8.47;;;4.80;;
19036;SDS011;9651;49.138;8.900;2024-02-15T21:35:03;13.77;;;4.20;;
19036;SDS011;9651;49.138;8.900;2024-02-15T21:39:06;10.97;;;4.60;;
19036;SDS011;9651;49.138;8.900;2024-02-15T21:43:09;14.97;;;4.70;;
19036;SDS011;9651;49.138;8.900;2024-02-15T21:47:11;11.20;;;5.10;;
19036;SDS011;9651;49.138;8.900;2024-02-15T21:51:14;10.03;;;4.17;;
19036;SDS011;9651;49.138;8.900;2024-02-15T21:55:16;12.10;;;5.80;;
19036;SDS011;9651;49.138;8.900;2024-02-15T21:59:19;10.50;;;5.10;;
19036;SDS011;9651;49.138;8.900;2024-02-15T22:03:21;12.00;;;4.87;;
19036;SDS011;9651;49.138;8.900;2024-02-15T22:07:23;6.10;;;4.37;;
19036;SDS011;9651;49.138;8.900;2024-02-15T22:11:25;6.93;;;4.00;;
19036;SDS011;9651;49.138;8.900;2024-02-15T22:15:29;5.47;;;3.40;;
19036;SDS011;9651;49.138;8.900;2024-02-15T22:19:33;7.73;;;5.27;;
19036;SDS011;9651;49.138;8.900;2024-02-15T22:23:35;10.67;;;5.33;;
19036;SDS011;9651;49.138;8.900;2024-02-15T22:27:37;8.70;;;4.87;;
19036;SDS011;9651;49.138;8.900;2024-02-15T22:31:40;8.20;;;5.30;;
19036;SDS011;9651;49.138;8.900;2024-02-15T22:35:42;11.10;;;5.20;;
19036;SDS011;9651;49.138;8.900;2024-02-15T22:39:45;8.17;;;5.03;;
19036;SDS011;9651;49.138;8.900;2024-02-15T22:43:48;6.87;;;4.33;;
19036;SDS011;9651;49.138;8.900;2024-02-15T22:47:51;10.13;;;5.07;;
19036;SDS011;9651;49.138;8.900;2024-02-15T22:51:53;10.17;;;4.53;;
19036;SDS011;9651;49.138;8.900;2024-02-15T22:55:55;5.07;;;4.13;;
19036;SDS011;9651;49.138;8.900;2024-02-15T22:59:57;6.73;;;3.67;;
19036;SDS011;9651;49.138;8.900;2024-02-15T23:04:01;6.13;;;3.37;;
19036;SDS011;9651;49.138;8.900;2024-02-15T23:08:03;5.30;;;3.70;;
19036;SDS011;9651;49.138;8.900;2024-02-15T23:12:05;7.23;;;3.70;;
19036;SDS011;9651;49.138;8.900;2024-02-15T23:16:10;5.27;;;3.53;;
19036;SDS011;9651;49.138;8.900;2024-02-15T23:20:13;7.47;;;3.70;;
19036;SDS011;9651;49.138;8.900;2024-02-15T23:24:15;7.73;;;4.43;;
19036;SDS011;9651;49.138;8.900;2024-02-15T23:28:17;6.73;;;4.00;;
19036;SDS011;9651;49.138;8.900;2024-02-15T23:32:19;6.73;;;3.57;;
19036;SDS011;9651;49.138;8.900;2024-02-15T23:36:23;6.07;;;3.47;;
19036;SDS011;9651;49.138;8.900;2024-02-15T23:40:42;5.70;;;3.40;;
19036;SDS011;9651;49.138;8.900;2024-02-15T23:44:44;5.60;;;2.97;;
19036;SDS011;9651;49.138;8.900;2024-02-15T23:48:47;4.27;;;3.17;;
19036;SDS011;9651;49.138;8.900;2024-02-15T23:52:50;4.70;;;2.87;;
19036;SDS011;9651;49.138;8.900;2024-02-15T23:56:52;5.33;;;3.10;;
